KPTD

Potsdam Municipal / Damon Field / Airport

Potsdam, New York, USA
METAR KPTD 151250Z AUTO 23008KT 10SM BKN007 BKN060 22/20 A2986 RMK AO2
Observed Flight Rules
Aug-15 @ 12:50 UTC (17 hours ago) Instrument Flight Rules
Wind Visibility Clouds
230° at 8 knots 10 miles
  • Broken at 700' AGL
  • Broken at 6,000' AGL
Temperatures Readings
Current 22°C / 72°F
Dewpoint 20°C / 68°F
Humidity 88%
Altimeter 29.86" Hg
Pressure 1011 hPa
Elevation 144
METAR KPTD 151250Z AUTO 23008KT 10SM BKN007 BKN060 22/20 A2986 RMK AO2
Observed Flight Rules
Aug-15 @ 12:50 UTC
(17 hours ago)
IFR
Wind Visibility
230° at 8 knots 10 miles
Clouds
  • Broken at 700' AGL
  • Broken at 6,000' AGL
Temperature Dewpoint
22°C / 72°F 20°C / 68°F
Humidity Altimeter Pressure
88% 29.86" Hg 1011 hPa